Longvann — PBYB — position and weather

sailwx.info

Track history (hours):
 
Tides and Currents Weather Stations Pressure Air Temp Water Temp Dewpoint Dewpoint Depression Visibility Wind Speed Wind Dir Waves Ship Positions

Longvann

Last reported at 2017-Apr-27 23:54 UTC. Time now 2017-Apr-28 04:12 UTC.
Position N 54°49' E 015°48'.

Length 114 m; draft 4 m.

Type: Cargo ship. MMSI: 246670000.

Date/timePositionNaut miles runAvg speedWind from/ knotsBaromVisibWave heightAir tempDewpointWater temp
2017-Apr-27 23:54N 54°49' E 015°48'611.6
2017-Apr-27 23:26N 54°45' E 015°41'711.5
2017-Apr-27 22:49N 54°40' E 015°32'511.5
2017-Apr-27 22:21N 54°37' E 015°25'1411.9
2017-Apr-27 21:12N 54°28' E 015°08'49 9.4
2017-Apr-27 15:59N 53°46' E 014°24'612.2
2017-Apr-27 15:30N 53°41' E 014°30'611.5
2017-Apr-27 15:00N 53°36' E 014°35'9 9.3
2017-Apr-27 14:00N 53°27' E 014°36'3 5.2
2017-Apr-27 13:29N 53°24' E 014°36'0 0.1
2017-Apr-27 12:59N 53°24' E 014°36'0 0.0
2017-Apr-27 12:29N 53°24' E 014°36'0 0.0
2017-Apr-27 11:58N 53°24' E 014°36'0 0.0
2017-Apr-27 11:29N 53°24' E 014°36'0 0.0
2017-Apr-27 10:58N 53°24' E 014°36'0 0.0
2017-Apr-27 10:29N 53°24' E 014°36'0 0.0
2017-Apr-27 09:59N 53°24' E 014°36'0 0.0
2017-Apr-27 09:29N 53°24' E 014°36'0 0.0
2017-Apr-27 08:59N 53°24' E 014°36'0 0.0
2017-Apr-27 08:29N 53°24' E 014°36'0 0.0
2017-Apr-27 07:59N 53°24' E 014°36'0 0.0
2017-Apr-27 07:25N 53°24' E 014°36'0 0.0
2017-Apr-27 06:59N 53°24' E 014°36'0 0.0
2017-Apr-27 06:29N 53°24' E 014°36'0 0.0
2017-Apr-27 05:58N 53°24' E 014°36'0 0.0
2017-Apr-27 05:28N 53°24' E 014°36'0 0.0
2017-Apr-27 04:59N 53°24' E 014°36'0 0.0
2017-Apr-27 04:28N 53°24' E 014°36'0 0.0
2017-Apr-27 03:59N 53°24' E 014°36'0 0.0
2017-Apr-27 03:28N 53°24' E 014°36'0 0.0
2017-Apr-27 02:59N 53°24' E 014°36'0 0.0
2017-Apr-27 02:28N 53°24' E 014°36'0 0.0
2017-Apr-27 01:56N 53°24' E 014°36'0 0.0
2017-Apr-27 01:29N 53°24' E 014°36'0 0.0
2017-Apr-27 00:58N 53°24' E 014°36'0 0.0
2017-Apr-27 00:29N 53°24' E 014°36'0 0.0
2017-Apr-26 23:59N 53°24' E 014°36'0 0.0
2017-Apr-26 23:26N 53°24' E 014°36'0 0.0
2017-Apr-26 22:59N 53°24' E 014°36'0 0.0
2017-Apr-26 22:29N 53°24' E 014°36'0 0.0
2017-Apr-26 21:59N 53°24' E 014°36'0 0.0
2017-Apr-26 21:29N 53°24' E 014°36'0 0.0
2017-Apr-26 20:55N 53°24' E 014°36'0 0.0
2017-Apr-26 20:28N 53°24' E 014°36'0 0.0
2017-Apr-26 19:59N 53°24' E 014°36'0 0.0
2017-Apr-26 19:29N 53°24' E 014°36'0 0.0
2017-Apr-26 18:59N 53°24' E 014°36'0 0.0
2017-Apr-26 18:29N 53°24' E 014°36'0 0.0
2017-Apr-26 17:59N 53°24' E 014°36'0 0.0
2017-Apr-26 17:29N 53°24' E 014°36'0 0.0
2017-Apr-26 16:58N 53°24' E 014°36'0 0.0
2017-Apr-26 16:29N 53°24' E 014°36'0 0.0
2017-Apr-26 15:59N 53°24' E 014°36'0 0.0
2017-Apr-26 15:29N 53°24' E 014°36'0 0.0
2017-Apr-26 14:59N 53°24' E 014°36'0 0.0
2017-Apr-26 14:28N 53°24' E 014°36'2 2.6
2017-Apr-26 13:31N 53°27' E 014°36'4 8.4
2017-Apr-26 13:00N 53°31' E 014°38'5 9.6
2017-Apr-26 12:31N 53°36' E 014°36'510.0
2017-Apr-26 12:00N 53°40' E 014°32'510.7
2017-Apr-26 11:30N 53°44' E 014°26'163 5.1
2017-Apr-25 03:54N 55°03' E 018°31'4 8.9
2017-Apr-25 03:31N 55°03' E 018°37'5 9.2
2017-Apr-25 03:00N 55°01' E 018°44'4 9.1
2017-Apr-25 02:30N 54°59' E 018°51'5 9.1
2017-Apr-25 02:01N 54°57' E 018°58'5 9.2
2017-Apr-25 01:30N 54°55' E 019°05'5 9.3
2017-Apr-25 01:00N 54°52' E 019°12'5 9.1
2017-Apr-25 00:30N 54°50' E 019°19'4 8.9
2017-Apr-25 00:00N 54°48' E 019°26'4 8.9
2017-Apr-24 23:30N 54°46' E 019°33'5 9.0
2017-Apr-24 23:00N 54°44' E 019°40'5 9.3
2017-Apr-24 22:31N 54°41' E 019°46'1 0.0
2017-Apr-23 13:40N 54°41' E 019°45'1 4.6
2017-Apr-23 13:29N 54°41' E 019°43'2 3.2
2017-Apr-23 12:53N 54°39' E 019°45'2 4.0
2017-Apr-23 12:31N 54°41' E 019°43'4 5.5
2017-Apr-23 11:48N 54°43' E 019°39'2 6.8
2017-Apr-23 11:30N 54°44' E 019°35'3 6.8
2017-Apr-23 11:01N 54°46' E 019°30'3 6.9
2017-Apr-23 10:31N 54°48' E 019°25'4 7.1
2017-Apr-23 10:01N 54°49' E 019°20'5 9.1
2017-Apr-23 09:31N 54°52' E 019°13'5 9.7
2017-Apr-23 09:01N 54°54' E 019°06'5 9.7
2017-Apr-23 08:30N 54°56' E 018°58'5 9.8
2017-Apr-23 08:00N 54°57' E 018°50'5 9.9
2017-Apr-23 07:31N 54°59' E 018°42'5 9.9
2017-Apr-23 07:01N 55°01' E 018°34'5 9.6
2017-Apr-23 06:31N 55°01' E 018°26'610.3
2017-Apr-23 05:57N 55°00' E 018°16'510.9
2017-Apr-23 05:31N 54°59' E 018°07'610.8
2017-Apr-23 05:00N 54°59' E 017°58'144 8.9
2017-Apr-22 12:43N 53°35' E 014°36'2 9.4
2017-Apr-22 12:31N 53°33' E 014°36'5 9.3
2017-Apr-22 12:01N 53°29' E 014°37'4 7.0
2017-Apr-22 11:28N 53°25' E 014°34'0 0.0
2017-Apr-22 10:58N 53°25' E 014°34'0 0.0
2017-Apr-22 10:28N 53°25' E 014°34'0 0.0
2017-Apr-22 09:58N 53°25' E 014°34'0 0.0
2017-Apr-22 09:28N 53°25' E 014°34'0 0.0
2017-Apr-22 08:58N 53°25' E 014°34'0 0.0
2017-Apr-22 08:28N 53°25' E 014°34'0 0.0
2017-Apr-22 07:58N 53°25' E 014°34'0 0.0
2017-Apr-22 07:28N 53°25' E 014°34'0 0.0
2017-Apr-22 06:58N 53°25' E 014°34'0 0.0
2017-Apr-22 06:28N 53°25' E 014°34'0 0.0
2017-Apr-22 05:58N 53°25' E 014°34'0 0.0
2017-Apr-22 05:28N 53°25' E 014°34'0 0.0
2017-Apr-22 04:58N 53°25' E 014°34'0 0.0
2017-Apr-22 04:28N 53°25' E 014°34'0 0.0
2017-Apr-22 03:58N 53°25' E 014°34'0 0.0
2017-Apr-22 03:28N 53°25' E 014°34'0 0.0
2017-Apr-22 02:58N 53°25' E 014°34'0 0.0
2017-Apr-22 02:28N 53°25' E 014°34'0 0.0
2017-Apr-22 01:58N 53°25' E 014°34'0 0.0
2017-Apr-22 01:28N 53°25' E 014°34'0 0.0
2017-Apr-22 00:58N 53°25' E 014°34'0 0.0
2017-Apr-22 00:28N 53°25' E 014°34'0 0.0
2017-Apr-21 23:58N 53°25' E 014°34'0 0.0
2017-Apr-21 23:28N 53°25' E 014°34'0 0.0
2017-Apr-21 22:58N 53°25' E 014°34'0 0.0
2017-Apr-21 22:28N 53°25' E 014°34'0 0.0
2017-Apr-21 21:58N 53°25' E 014°34'0 0.0
2017-Apr-21 21:28N 53°25' E 014°34'0 0.0
2017-Apr-21 20:58N 53°25' E 014°34'0 0.0
2017-Apr-21 20:28N 53°25' E 014°34'0 0.0
2017-Apr-21 19:58N 53°25' E 014°34'0 0.0
2017-Apr-21 19:28N 53°25' E 014°34'0 0.0
2017-Apr-21 18:58N 53°25' E 014°34'0 0.0
2017-Apr-21 18:25N 53°25' E 014°34'0 0.0
2017-Apr-21 17:58N 53°25' E 014°34'0 0.0
2017-Apr-21 17:28N 53°25' E 014°34'0 0.0
2017-Apr-21 16:58N 53°25' E 014°34'0 0.0
2017-Apr-21 16:28N 53°25' E 014°34'0 0.0
2017-Apr-21 15:55N 53°25' E 014°34'0 0.0
2017-Apr-21 15:28N 53°25' E 014°34'0 0.0
2017-Apr-21 14:58N 53°25' E 014°34'0 0.0
2017-Apr-21 14:28N 53°25' E 014°34'0 0.0
2017-Apr-21 13:58N 53°25' E 014°34'0 0.0
2017-Apr-21 13:28N 53°25' E 014°34'0 0.0
2017-Apr-21 12:58N 53°25' E 014°34'0 0.0
2017-Apr-21 12:28N 53°25' E 014°34'0 0.0
2017-Apr-21 11:58N 53°25' E 014°34'0 0.0
2017-Apr-21 11:28N 53°25' E 014°34'0 0.0
2017-Apr-21 10:58N 53°25' E 014°34'0 0.0
2017-Apr-21 10:28N 53°25' E 014°34'0 0.0
2017-Apr-21 09:58N 53°25' E 014°34'0 0.0
2017-Apr-21 09:28N 53°25' E 014°34'0 0.0
2017-Apr-21 08:58N 53°25' E 014°34'0 0.0
2017-Apr-21 08:28N 53°25' E 014°34'0 0.0
2017-Apr-21 07:55N 53°25' E 014°34'0 0.0
2017-Apr-21 07:22N 53°25' E 014°34'0 0.0
2017-Apr-21 06:58N 53°25' E 014°34'0 0.0
2017-Apr-21 06:28N 53°25' E 014°34'0 0.0
2017-Apr-21 05:58N 53°25' E 014°34'0 0.0
2017-Apr-21 05:28N 53°25' E 014°34'0 0.0
2017-Apr-21 04:58N 53°25' E 014°34'0 0.0
2017-Apr-21 04:28N 53°25' E 014°34'0 0.0
2017-Apr-21 03:58N 53°25' E 014°34'0 0.0
2017-Apr-21 03:28N 53°25' E 014°34'0 0.0
2017-Apr-21 02:58N 53°25' E 014°34'0 0.0
2017-Apr-21 02:28N 53°25' E 014°34'0 0.0
2017-Apr-21 01:58N 53°25' E 014°34'0 0.0
2017-Apr-21 01:28N 53°25' E 014°34'0 0.0
2017-Apr-21 00:58N 53°25' E 014°34'0 0.0
2017-Apr-21 00:25N 53°25' E 014°34'0 0.0
2017-Apr-20 23:58N 53°25' E 014°34'0 0.0
2017-Apr-20 23:25N 53°25' E 014°34'0 0.0
2017-Apr-20 22:58N 53°25' E 014°34'0 0.0
2017-Apr-20 22:28N 53°25' E 014°34'0 0.0
2017-Apr-20 21:58N 53°25' E 014°34'0 0.0
2017-Apr-20 21:28N 53°25' E 014°34'0 0.0
2017-Apr-20 20:58N 53°25' E 014°34'0 0.0
2017-Apr-20 20:28N 53°25' E 014°34'0 0.0
2017-Apr-20 19:58N 53°25' E 014°34'0 0.0
2017-Apr-20 19:28N 53°25' E 014°34'0 0.0
2017-Apr-20 18:55N 53°25' E 014°34'0 0.0
2017-Apr-20 18:28N 53°25' E 014°34'0 0.0
2017-Apr-20 17:58N 53°25' E 014°34'0 0.0
2017-Apr-20 17:28N 53°25' E 014°34'0 0.0
2017-Apr-20 16:58N 53°25' E 014°34'0 0.0
2017-Apr-20 16:28N 53°25' E 014°34'0 0.0
2017-Apr-20 15:58N 53°25' E 014°34'0 0.0
2017-Apr-20 15:28N 53°25' E 014°34'0 0.0
2017-Apr-20 14:58N 53°25' E 014°34'0 0.0
2017-Apr-20 14:28N 53°25' E 014°34'0 0.0
2017-Apr-20 13:28N 53°25' E 014°34'0 0.0
2017-Apr-20 12:58N 53°25' E 014°34'0 0.0
2017-Apr-20 12:28N 53°25' E 014°34'0 0.0
2017-Apr-20 11:58N 53°25' E 014°34'0 0.0
2017-Apr-20 11:28N 53°25' E 014°34'0 0.0
2017-Apr-20 10:58N 53°25' E 014°34'0 0.0
2017-Apr-20 10:28N 53°25' E 014°34'0 0.0
2017-Apr-20 09:58N 53°25' E 014°34'0 0.0
2017-Apr-20 09:28N 53°25' E 014°34'0 0.0
2017-Apr-20 08:55N 53°25' E 014°34'0 0.0
2017-Apr-20 08:28N 53°25' E 014°34'0 0.0
2017-Apr-20 07:55N 53°25' E 014°34'0 0.0
2017-Apr-20 07:28N 53°25' E 014°34'0 0.0
2017-Apr-20 06:58N 53°25' E 014°34'0 0.0
2017-Apr-20 06:28N 53°25' E 014°34'0 0.0
2017-Apr-20 05:58N 53°25' E 014°34'0 0.0
2017-Apr-20 05:28N 53°25' E 014°34'0 0.0
2017-Apr-20 04:58N 53°25' E 014°34'0 0.0
2017-Apr-20 04:28N 53°25' E 014°34'0 0.0
2017-Apr-20 03:58N 53°25' E 014°34'0 0.0
2017-Apr-20 03:28N 53°25' E 014°34'0 0.0
2017-Apr-20 02:58N 53°25' E 014°34'0 0.0
2017-Apr-20 02:28N 53°25' E 014°34'0 0.0
2017-Apr-20 01:58N 53°25' E 014°34'0 0.0
2017-Apr-20 01:28N 53°25' E 014°34'0 0.0
2017-Apr-20 00:58N 53°25' E 014°34'0 0.0
2017-Apr-20 00:25N 53°25' E 014°34'0 0.0
2017-Apr-19 23:58N 53°25' E 014°34'0 0.0
2017-Apr-19 23:28N 53°25' E 014°34'0 0.0
2017-Apr-19 22:58N 53°25' E 014°34'0 0.0
2017-Apr-19 22:28N 53°25' E 014°34'0 0.0
2017-Apr-19 21:58N 53°25' E 014°34'0 0.0
2017-Apr-19 21:28N 53°25' E 014°34'0 0.0
2017-Apr-19 20:58N 53°25' E 014°34'0 0.0
2017-Apr-19 20:28N 53°25' E 014°34'0 0.0
2017-Apr-19 19:58N 53°25' E 014°34'0 0.0
2017-Apr-19 19:28N 53°25' E 014°34'0 0.0
2017-Apr-19 18:58N 53°25' E 014°34'0 0.0
2017-Apr-19 18:28N 53°25' E 014°34'0 0.0
2017-Apr-19 17:58N 53°25' E 014°34'0 0.0
2017-Apr-19 17:28N 53°25' E 014°34'0 0.0
2017-Apr-19 16:58N 53°25' E 014°34'0 0.0
2017-Apr-19 16:28N 53°25' E 014°34'0 0.0
2017-Apr-19 15:58N 53°25' E 014°34'0 0.0
2017-Apr-19 15:28N 53°25' E 014°34'0 0.0
2017-Apr-19 14:58N 53°25' E 014°34'0 0.0
2017-Apr-19 14:28N 53°25' E 014°34'0 0.0
2017-Apr-19 13:55N 53°25' E 014°34'0 0.0
2017-Apr-19 13:25N 53°25' E 014°34'0 0.0
2017-Apr-19 12:58N 53°25' E 014°34'0 0.0
2017-Apr-19 12:28N 53°25' E 014°34'0 0.0
2017-Apr-19 11:58N 53°25' E 014°34'0 0.0
2017-Apr-19 11:28N 53°25' E 014°34'0 0.0
2017-Apr-19 10:58N 53°25' E 014°34'0 0.0
2017-Apr-19 10:28N 53°25' E 014°34'0 0.0
2017-Apr-19 09:58N 53°25' E 014°34'0 0.0
2017-Apr-19 09:28N 53°25' E 014°34'0 0.0
2017-Apr-19 08:58N 53°25' E 014°34'0 0.0
2017-Apr-19 08:28N 53°25' E 014°34'0 0.0
2017-Apr-19 07:58N 53°25' E 014°34'0 0.0
2017-Apr-19 07:28N 53°25' E 014°34'0 0.0
2017-Apr-19 06:55N 53°25' E 014°34'0 0.0
2017-Apr-19 06:28N 53°25' E 014°34'0 0.0
2017-Apr-19 05:58N 53°25' E 014°34'0 0.0
2017-Apr-19 05:28N 53°25' E 014°34'0 0.0
2017-Apr-19 04:58N 53°25' E 014°34'0 0.0
2017-Apr-19 04:28N 53°25' E 014°34'0 0.0
2017-Apr-19 03:58N 53°25' E 014°34'0 0.0
2017-Apr-19 03:28N 53°25' E 014°34'0 0.0
2017-Apr-19 02:58N 53°25' E 014°34'0 0.0
2017-Apr-19 02:28N 53°25' E 014°34'0 0.0
2017-Apr-19 01:58N 53°25' E 014°34'0 0.0
2017-Apr-19 01:28N 53°25' E 014°34'0 0.0
2017-Apr-19 00:58N 53°25' E 014°34'0 0.0
2017-Apr-19 00:28N 53°25' E 014°34'0 0.0
2017-Apr-18 23:58N 53°25' E 014°34'0 0.0
2017-Apr-18 23:28N 53°25' E 014°34'0 0.0
2017-Apr-18 22:58N 53°25' E 014°34'0 0.0
2017-Apr-18 22:28N 53°25' E 014°34'0 0.0
2017-Apr-18 21:58N 53°25' E 014°34'0 0.0
2017-Apr-18 21:28N 53°25' E 014°34'0 0.0
2017-Apr-18 20:58N 53°25' E 014°34'0 0.0
2017-Apr-18 20:28N 53°25' E 014°34'0 0.0
2017-Apr-18 19:58N 53°25' E 014°34'0 0.0
2017-Apr-18 19:28N 53°25' E 014°34'0 0.0
2017-Apr-18 18:58N 53°25' E 014°34'0 0.0
2017-Apr-18 18:28N 53°25' E 014°34'0 0.0
2017-Apr-18 17:58N 53°25' E 014°34'0 0.0
2017-Apr-18 17:28N 53°25' E 014°34'0 0.0
2017-Apr-18 16:58N 53°25' E 014°34'0 0.0
2017-Apr-18 16:28N 53°25' E 014°34'0 0.0
2017-Apr-18 15:58N 53°25' E 014°34'0 0.0
2017-Apr-18 15:28N 53°25' E 014°34'0 0.0
2017-Apr-18 14:58N 53°25' E 014°34'0 0.0
2017-Apr-18 14:25N 53°25' E 014°34'0 0.4
2017-Apr-18 13:30N 53°26' E 014°35'3 5.9
2017-Apr-18 13:00N 53°28' E 014°36'4 8.9
2017-Apr-18 12:30N 53°33' E 014°37'510.3
2017-Apr-18 12:00N 53°38' E 014°35'510.7
2017-Apr-18 11:30N 53°42' E 014°29'611.3
2017-Apr-18 11:00N 53°46' E 014°23'74 8.5
2017-Apr-18 02:20N 54°58' E 013°53'3 9.0
2017-Apr-18 01:59N 55°00' E 013°56'4 9.1
2017-Apr-18 01:30N 55°04' E 014°01'5 9.3
2017-Apr-18 01:00N 55°07' E 014°07'5 9.2
2017-Apr-18 00:30N 55°11' E 014°12'5 9.3
2017-Apr-18 00:00N 55°14' E 014°17'  
Track history (hours):
 
Tides and Currents Weather Stations Pressure Air Temp Water Temp Dewpoint Dewpoint Depression Visibility Wind Speed Wind Dir Waves Ship Positions

Longvann

Last reported at 2017-Apr-27 23:54 UTC. Time now 2017-Apr-28 04:12 UTC.
Position N 54°49' E 015°48'.

Length 114 m; draft 4 m.

Type: Cargo ship. MMSI: 246670000.

Date/timePositionNaut miles runAvg speedWind from/ knotsBaromVisibWave heightAir tempDewpointWater temp
2017-Apr-27 23:54N 54°49' E 015°48'611.6
2017-Apr-27 23:26N 54°45' E 015°41'711.5
2017-Apr-27 22:49N 54°40' E 015°32'511.5
2017-Apr-27 22:21N 54°37' E 015°25'1411.9
2017-Apr-27 21:12N 54°28' E 015°08'49 9.4
2017-Apr-27 15:59N 53°46' E 014°24'612.2
2017-Apr-27 15:30N 53°41' E 014°30'611.5
2017-Apr-27 15:00N 53°36' E 014°35'9 9.3
2017-Apr-27 14:00N 53°27' E 014°36'3 5.2
2017-Apr-27 13:29N 53°24' E 014°36'0 0.1
2017-Apr-27 12:59N 53°24' E 014°36'0 0.0
2017-Apr-27 12:29N 53°24' E 014°36'0 0.0
2017-Apr-27 11:58N 53°24' E 014°36'0 0.0
2017-Apr-27 11:29N 53°24' E 014°36'0 0.0
2017-Apr-27 10:58N 53°24' E 014°36'0 0.0
2017-Apr-27 10:29N 53°24' E 014°36'0 0.0
2017-Apr-27 09:59N 53°24' E 014°36'0 0.0
2017-Apr-27 09:29N 53°24' E 014°36'0 0.0
2017-Apr-27 08:59N 53°24' E 014°36'0 0.0
2017-Apr-27 08:29N 53°24' E 014°36'0 0.0
2017-Apr-27 07:59N 53°24' E 014°36'0 0.0
2017-Apr-27 07:25N 53°24' E 014°36'0 0.0
2017-Apr-27 06:59N 53°24' E 014°36'0 0.0
2017-Apr-27 06:29N 53°24' E 014°36'0 0.0
2017-Apr-27 05:58N 53°24' E 014°36'0 0.0
2017-Apr-27 05:28N 53°24' E 014°36'0 0.0
2017-Apr-27 04:59N 53°24' E 014°36'0 0.0
2017-Apr-27 04:28N 53°24' E 014°36'0 0.0
2017-Apr-27 03:59N 53°24' E 014°36'0 0.0
2017-Apr-27 03:28N 53°24' E 014°36'0 0.0
2017-Apr-27 02:59N 53°24' E 014°36'0 0.0
2017-Apr-27 02:28N 53°24' E 014°36'0 0.0
2017-Apr-27 01:56N 53°24' E 014°36'0 0.0
2017-Apr-27 01:29N 53°24' E 014°36'0 0.0
2017-Apr-27 00:58N 53°24' E 014°36'0 0.0
2017-Apr-27 00:29N 53°24' E 014°36'0 0.0
2017-Apr-26 23:59N 53°24' E 014°36'0 0.0
2017-Apr-26 23:26N 53°24' E 014°36'0 0.0
2017-Apr-26 22:59N 53°24' E 014°36'0 0.0
2017-Apr-26 22:29N 53°24' E 014°36'0 0.0
2017-Apr-26 21:59N 53°24' E 014°36'0 0.0
2017-Apr-26 21:29N 53°24' E 014°36'0 0.0
2017-Apr-26 20:55N 53°24' E 014°36'0 0.0
2017-Apr-26 20:28N 53°24' E 014°36'0 0.0
2017-Apr-26 19:59N 53°24' E 014°36'0 0.0
2017-Apr-26 19:29N 53°24' E 014°36'0 0.0
2017-Apr-26 18:59N 53°24' E 014°36'0 0.0
2017-Apr-26 18:29N 53°24' E 014°36'0 0.0
2017-Apr-26 17:59N 53°24' E 014°36'0 0.0
2017-Apr-26 17:29N 53°24' E 014°36'0 0.0
2017-Apr-26 16:58N 53°24' E 014°36'0 0.0
2017-Apr-26 16:29N 53°24' E 014°36'0 0.0
2017-Apr-26 15:59N 53°24' E 014°36'0 0.0
2017-Apr-26 15:29N 53°24' E 014°36'0 0.0
2017-Apr-26 14:59N 53°24' E 014°36'0 0.0
2017-Apr-26 14:28N 53°24' E 014°36'2 2.6
2017-Apr-26 13:31N 53°27' E 014°36'4 8.4
2017-Apr-26 13:00N 53°31' E 014°38'5 9.6
2017-Apr-26 12:31N 53°36' E 014°36'510.0
2017-Apr-26 12:00N 53°40' E 014°32'510.7
2017-Apr-26 11:30N 53°44' E 014°26'163 5.1
2017-Apr-25 03:54N 55°03' E 018°31'4 8.9
2017-Apr-25 03:31N 55°03' E 018°37'5 9.2
2017-Apr-25 03:00N 55°01' E 018°44'4 9.1
2017-Apr-25 02:30N 54°59' E 018°51'5 9.1
2017-Apr-25 02:01N 54°57' E 018°58'5 9.2
2017-Apr-25 01:30N 54°55' E 019°05'5 9.3
2017-Apr-25 01:00N 54°52' E 019°12'5 9.1
2017-Apr-25 00:30N 54°50' E 019°19'4 8.9
2017-Apr-25 00:00N 54°48' E 019°26'4 8.9
2017-Apr-24 23:30N 54°46' E 019°33'5 9.0
2017-Apr-24 23:00N 54°44' E 019°40'5 9.3
2017-Apr-24 22:31N 54°41' E 019°46'1 0.0
2017-Apr-23 13:40N 54°41' E 019°45'1 4.6
2017-Apr-23 13:29N 54°41' E 019°43'2 3.2
2017-Apr-23 12:53N 54°39' E 019°45'2 4.0
2017-Apr-23 12:31N 54°41' E 019°43'4 5.5
2017-Apr-23 11:48N 54°43' E 019°39'2 6.8
2017-Apr-23 11:30N 54°44' E 019°35'3 6.8
2017-Apr-23 11:01N 54°46' E 019°30'3 6.9
2017-Apr-23 10:31N 54°48' E 019°25'4 7.1
2017-Apr-23 10:01N 54°49' E 019°20'5 9.1
2017-Apr-23 09:31N 54°52' E 019°13'5 9.7
2017-Apr-23 09:01N 54°54' E 019°06'5 9.7
2017-Apr-23 08:30N 54°56' E 018°58'5 9.8
2017-Apr-23 08:00N 54°57' E 018°50'5 9.9
2017-Apr-23 07:31N 54°59' E 018°42'5 9.9
2017-Apr-23 07:01N 55°01' E 018°34'5 9.6
2017-Apr-23 06:31N 55°01' E 018°26'610.3
2017-Apr-23 05:57N 55°00' E 018°16'510.9
2017-Apr-23 05:31N 54°59' E 018°07'610.8
2017-Apr-23 05:00N 54°59' E 017°58'144 8.9
2017-Apr-22 12:43N 53°35' E 014°36'2 9.4
2017-Apr-22 12:31N 53°33' E 014°36'5 9.3
2017-Apr-22 12:01N 53°29' E 014°37'4 7.0
2017-Apr-22 11:28N 53°25' E 014°34'0 0.0
2017-Apr-22 10:58N 53°25' E 014°34'0 0.0
2017-Apr-22 10:28N 53°25' E 014°34'0 0.0
2017-Apr-22 09:58N 53°25' E 014°34'0 0.0
2017-Apr-22 09:28N 53°25' E 014°34'0 0.0
2017-Apr-22 08:58N 53°25' E 014°34'0 0.0
2017-Apr-22 08:28N 53°25' E 014°34'0 0.0
2017-Apr-22 07:58N 53°25' E 014°34'0 0.0
2017-Apr-22 07:28N 53°25' E 014°34'0 0.0
2017-Apr-22 06:58N 53°25' E 014°34'0 0.0
2017-Apr-22 06:28N 53°25' E 014°34'0 0.0
2017-Apr-22 05:58N 53°25' E 014°34'0 0.0
2017-Apr-22 05:28N 53°25' E 014°34'0 0.0
2017-Apr-22 04:58N 53°25' E 014°34'0 0.0
2017-Apr-22 04:28N 53°25' E 014°34'0 0.0
2017-Apr-22 03:58N 53°25' E 014°34'0 0.0
2017-Apr-22 03:28N 53°25' E 014°34'0 0.0
2017-Apr-22 02:58N 53°25' E 014°34'0 0.0
2017-Apr-22 02:28N 53°25' E 014°34'0 0.0
2017-Apr-22 01:58N 53°25' E 014°34'0 0.0
2017-Apr-22 01:28N 53°25' E 014°34'0 0.0
2017-Apr-22 00:58N 53°25' E 014°34'0 0.0
2017-Apr-22 00:28N 53°25' E 014°34'0 0.0
2017-Apr-21 23:58N 53°25' E 014°34'0 0.0
2017-Apr-21 23:28N 53°25' E 014°34'0 0.0
2017-Apr-21 22:58N 53°25' E 014°34'0 0.0
2017-Apr-21 22:28N 53°25' E 014°34'0 0.0
2017-Apr-21 21:58N 53°25' E 014°34'0 0.0
2017-Apr-21 21:28N 53°25' E 014°34'0 0.0
2017-Apr-21 20:58N 53°25' E 014°34'0 0.0
2017-Apr-21 20:28N 53°25' E 014°34'0 0.0
2017-Apr-21 19:58N 53°25' E 014°34'0 0.0
2017-Apr-21 19:28N 53°25' E 014°34'0 0.0
2017-Apr-21 18:58N 53°25' E 014°34'0 0.0
2017-Apr-21 18:25N 53°25' E 014°34'0 0.0
2017-Apr-21 17:58N 53°25' E 014°34'0 0.0
2017-Apr-21 17:28N 53°25' E 014°34'0 0.0
2017-Apr-21 16:58N 53°25' E 014°34'0 0.0
2017-Apr-21 16:28N 53°25' E 014°34'0 0.0
2017-Apr-21 15:55N 53°25' E 014°34'0 0.0
2017-Apr-21 15:28N 53°25' E 014°34'0 0.0
2017-Apr-21 14:58N 53°25' E 014°34'0 0.0
2017-Apr-21 14:28N 53°25' E 014°34'0 0.0
2017-Apr-21 13:58N 53°25' E 014°34'0 0.0
2017-Apr-21 13:28N 53°25' E 014°34'0 0.0
2017-Apr-21 12:58N 53°25' E 014°34'0 0.0
2017-Apr-21 12:28N 53°25' E 014°34'0 0.0
2017-Apr-21 11:58N 53°25' E 014°34'0 0.0
2017-Apr-21 11:28N 53°25' E 014°34'0 0.0
2017-Apr-21 10:58N 53°25' E 014°34'0 0.0
2017-Apr-21 10:28N 53°25' E 014°34'0 0.0
2017-Apr-21 09:58N 53°25' E 014°34'0 0.0
2017-Apr-21 09:28N 53°25' E 014°34'0 0.0
2017-Apr-21 08:58N 53°25' E 014°34'0 0.0
2017-Apr-21 08:28N 53°25' E 014°34'0 0.0
2017-Apr-21 07:55N 53°25' E 014°34'0 0.0
2017-Apr-21 07:22N 53°25' E 014°34'0 0.0
2017-Apr-21 06:58N 53°25' E 014°34'0 0.0
2017-Apr-21 06:28N 53°25' E 014°34'0 0.0
2017-Apr-21 05:58N 53°25' E 014°34'0 0.0
2017-Apr-21 05:28N 53°25' E 014°34'0 0.0
2017-Apr-21 04:58N 53°25' E 014°34'0 0.0
2017-Apr-21 04:28N 53°25' E 014°34'0 0.0
2017-Apr-21 03:58N 53°25' E 014°34'0 0.0
2017-Apr-21 03:28N 53°25' E 014°34'0 0.0
2017-Apr-21 02:58N 53°25' E 014°34'0 0.0
2017-Apr-21 02:28N 53°25' E 014°34'0 0.0
2017-Apr-21 01:58N 53°25' E 014°34'0 0.0
2017-Apr-21 01:28N 53°25' E 014°34'0 0.0
2017-Apr-21 00:58N 53°25' E 014°34'0 0.0
2017-Apr-21 00:25N 53°25' E 014°34'0 0.0
2017-Apr-20 23:58N 53°25' E 014°34'0 0.0
2017-Apr-20 23:25N 53°25' E 014°34'0 0.0
2017-Apr-20 22:58N 53°25' E 014°34'0 0.0
2017-Apr-20 22:28N 53°25' E 014°34'0 0.0
2017-Apr-20 21:58N 53°25' E 014°34'0 0.0
2017-Apr-20 21:28N 53°25' E 014°34'0 0.0
2017-Apr-20 20:58N 53°25' E 014°34'0 0.0
2017-Apr-20 20:28N 53°25' E 014°34'0 0.0
2017-Apr-20 19:58N 53°25' E 014°34'0 0.0
2017-Apr-20 19:28N 53°25' E 014°34'0 0.0
2017-Apr-20 18:55N 53°25' E 014°34'0 0.0
2017-Apr-20 18:28N 53°25' E 014°34'0 0.0
2017-Apr-20 17:58N 53°25' E 014°34'0 0.0
2017-Apr-20 17:28N 53°25' E 014°34'0 0.0
2017-Apr-20 16:58N 53°25' E 014°34'0 0.0
2017-Apr-20 16:28N 53°25' E 014°34'0 0.0
2017-Apr-20 15:58N 53°25' E 014°34'0 0.0
2017-Apr-20 15:28N 53°25' E 014°34'0 0.0
2017-Apr-20 14:58N 53°25' E 014°34'0 0.0
2017-Apr-20 14:28N 53°25' E 014°34'0 0.0
2017-Apr-20 13:28N 53°25' E 014°34'0 0.0
2017-Apr-20 12:58N 53°25' E 014°34'0 0.0
2017-Apr-20 12:28N 53°25' E 014°34'0 0.0
2017-Apr-20 11:58N 53°25' E 014°34'0 0.0
2017-Apr-20 11:28N 53°25' E 014°34'0 0.0
2017-Apr-20 10:58N 53°25' E 014°34'0 0.0
2017-Apr-20 10:28N 53°25' E 014°34'0 0.0
2017-Apr-20 09:58N 53°25' E 014°34'0 0.0
2017-Apr-20 09:28N 53°25' E 014°34'0 0.0
2017-Apr-20 08:55N 53°25' E 014°34'0 0.0
2017-Apr-20 08:28N 53°25' E 014°34'0 0.0
2017-Apr-20 07:55N 53°25' E 014°34'0 0.0
2017-Apr-20 07:28N 53°25' E 014°34'0 0.0
2017-Apr-20 06:58N 53°25' E 014°34'0 0.0
2017-Apr-20 06:28N 53°25' E 014°34'0 0.0
2017-Apr-20 05:58N 53°25' E 014°34'0 0.0
2017-Apr-20 05:28N 53°25' E 014°34'0 0.0
2017-Apr-20 04:58N 53°25' E 014°34'0 0.0
2017-Apr-20 04:28N 53°25' E 014°34'0 0.0
2017-Apr-20 03:58N 53°25' E 014°34'0 0.0
2017-Apr-20 03:28N 53°25' E 014°34'0 0.0
2017-Apr-20 02:58N 53°25' E 014°34'0 0.0
2017-Apr-20 02:28N 53°25' E 014°34'0 0.0
2017-Apr-20 01:58N 53°25' E 014°34'0 0.0
2017-Apr-20 01:28N 53°25' E 014°34'0 0.0
2017-Apr-20 00:58N 53°25' E 014°34'0 0.0
2017-Apr-20 00:25N 53°25' E 014°34'0 0.0
2017-Apr-19 23:58N 53°25' E 014°34'0 0.0
2017-Apr-19 23:28N 53°25' E 014°34'0 0.0
2017-Apr-19 22:58N 53°25' E 014°34'0 0.0
2017-Apr-19 22:28N 53°25' E 014°34'0 0.0
2017-Apr-19 21:58N 53°25' E 014°34'0 0.0
2017-Apr-19 21:28N 53°25' E 014°34'0 0.0
2017-Apr-19 20:58N 53°25' E 014°34'0 0.0
2017-Apr-19 20:28N 53°25' E 014°34'0 0.0
2017-Apr-19 19:58N 53°25' E 014°34'0 0.0
2017-Apr-19 19:28N 53°25' E 014°34'0 0.0
2017-Apr-19 18:58N 53°25' E 014°34'0 0.0
2017-Apr-19 18:28N 53°25' E 014°34'0 0.0
2017-Apr-19 17:58N 53°25' E 014°34'0 0.0
2017-Apr-19 17:28N 53°25' E 014°34'0 0.0
2017-Apr-19 16:58N 53°25' E 014°34'0 0.0
2017-Apr-19 16:28N 53°25' E 014°34'0 0.0
2017-Apr-19 15:58N 53°25' E 014°34'0 0.0
2017-Apr-19 15:28N 53°25' E 014°34'0 0.0
2017-Apr-19 14:58N 53°25' E 014°34'0 0.0
2017-Apr-19 14:28N 53°25' E 014°34'0 0.0
2017-Apr-19 13:55N 53°25' E 014°34'0 0.0
2017-Apr-19 13:25N 53°25' E 014°34'0 0.0
2017-Apr-19 12:58N 53°25' E 014°34'0 0.0
2017-Apr-19 12:28N 53°25' E 014°34'0 0.0
2017-Apr-19 11:58N 53°25' E 014°34'0 0.0
2017-Apr-19 11:28N 53°25' E 014°34'0 0.0
2017-Apr-19 10:58N 53°25' E 014°34'0 0.0
2017-Apr-19 10:28N 53°25' E 014°34'0 0.0
2017-Apr-19 09:58N 53°25' E 014°34'0 0.0
2017-Apr-19 09:28N 53°25' E 014°34'0 0.0
2017-Apr-19 08:58N 53°25' E 014°34'0 0.0
2017-Apr-19 08:28N 53°25' E 014°34'0 0.0
2017-Apr-19 07:58N 53°25' E 014°34'0 0.0
2017-Apr-19 07:28N 53°25' E 014°34'0 0.0
2017-Apr-19 06:55N 53°25' E 014°34'0 0.0
2017-Apr-19 06:28N 53°25' E 014°34'0 0.0
2017-Apr-19 05:58N 53°25' E 014°34'0 0.0
2017-Apr-19 05:28N 53°25' E 014°34'0 0.0
2017-Apr-19 04:58N 53°25' E 014°34'0 0.0
2017-Apr-19 04:28N 53°25' E 014°34'0 0.0
2017-Apr-19 03:58N 53°25' E 014°34'0 0.0
2017-Apr-19 03:28N 53°25' E 014°34'0 0.0
2017-Apr-19 02:58N 53°25' E 014°34'0 0.0
2017-Apr-19 02:28N 53°25' E 014°34'0 0.0
2017-Apr-19 01:58N 53°25' E 014°34'0 0.0
2017-Apr-19 01:28N 53°25' E 014°34'0 0.0
2017-Apr-19 00:58N 53°25' E 014°34'0 0.0
2017-Apr-19 00:28N 53°25' E 014°34'0 0.0
2017-Apr-18 23:58N 53°25' E 014°34'0 0.0
2017-Apr-18 23:28N 53°25' E 014°34'0 0.0
2017-Apr-18 22:58N 53°25' E 014°34'0 0.0
2017-Apr-18 22:28N 53°25' E 014°34'0 0.0
2017-Apr-18 21:58N 53°25' E 014°34'0 0.0
2017-Apr-18 21:28N 53°25' E 014°34'0 0.0
2017-Apr-18 20:58N 53°25' E 014°34'0 0.0
2017-Apr-18 20:28N 53°25' E 014°34'0 0.0
2017-Apr-18 19:58N 53°25' E 014°34'0 0.0
2017-Apr-18 19:28N 53°25' E 014°34'0 0.0
2017-Apr-18 18:58N 53°25' E 014°34'0 0.0
2017-Apr-18 18:28N 53°25' E 014°34'0 0.0
2017-Apr-18 17:58N 53°25' E 014°34'0 0.0
2017-Apr-18 17:28N 53°25' E 014°34'0 0.0
2017-Apr-18 16:58N 53°25' E 014°34'0 0.0
2017-Apr-18 16:28N 53°25' E 014°34'0 0.0
2017-Apr-18 15:58N 53°25' E 014°34'0 0.0
2017-Apr-18 15:28N 53°25' E 014°34'0 0.0
2017-Apr-18 14:58N 53°25' E 014°34'0 0.0
2017-Apr-18 14:25N 53°25' E 014°34'0 0.4
2017-Apr-18 13:30N 53°26' E 014°35'3 5.9
2017-Apr-18 13:00N 53°28' E 014°36'4 8.9
2017-Apr-18 12:30N 53°33' E 014°37'510.3
2017-Apr-18 12:00N 53°38' E 014°35'510.7
2017-Apr-18 11:30N 53°42' E 014°29'611.3
2017-Apr-18 11:00N 53°46' E 014°23'74 8.5
2017-Apr-18 02:20N 54°58' E 013°53'3 9.0
2017-Apr-18 01:59N 55°00' E 013°56'4 9.1
2017-Apr-18 01:30N 55°04' E 014°01'5 9.3
2017-Apr-18 01:00N 55°07' E 014°07'5 9.2
2017-Apr-18 00:30N 55°11' E 014°12'5 9.3
2017-Apr-18 00:00N 55°14' E 014°17'  

Dump ship's entire track history